Terminal Aerodrome Forecast
Issued by NWS

Home | Current Version | Previous Version | Text Only | Print | Product List | Glossary On
Versions: 1 2 3 4 5 6 7 8 9 10 11 12 13
000
FTUS44 KLZK 291700
TAFBPK
TAF
KBPK 291728Z 2918/3018 20006KT P6SM SCT040 BKN100
     FM291900 19009KT P6SM VCTS BKN040CB BKN100
      TEMPO 2919/2923 5SM -TSRA BR BKN035CB
     FM292300 20007KT P6SM VCTS BKN050CB BKN100
     FM300500 16005KT P6SM FEW050 SCT100
     FM301200 VRB03KT P6SM SCT100 BKN250=

USA.gov is the U.S. government's official web portal to all federal, state and local government web resources and services.